Time,TemperatureF,DewpointF,PressureIn,WindDirection,WindDirectionDegrees,WindSpeedMPH,WindSpeedGustMPH,Humidity,HourlyPrecipIn,Conditions,Clouds,dailyrainin,SolarRadiationWatts/m^2,SoftwareType,DateUTC
2013-04-11 00:03:00,74.2,71.7,30.01,East,96,1.0,6.0,92,0.00,,---,0.00,0.00,VWS V14.01,2013-04-11 04:03:00,
2013-04-11 00:33:00,74.2,71.7,30.01,ESE,105,3.0,11.0,92,0.00,,---,0.00,0.00,VWS V14.01,2013-04-11 04:33:00,
2013-04-11 01:03:00,74.0,71.2,30.01,South,173,2.0,7.0,91,0.00,,---,0.00,0.00,VWS V14.01,2013-04-11 05:03:00,
2013-04-11 01:33:00,74.0,71.2,29.99,ESE,112,4.0,7.0,91,0.00,,---,0.00,0.00,VWS V14.01,2013-04-11 05:33:00,
2013-04-11 02:03:00,74.0,71.2,29.98,SE,124,3.0,11.0,91,0.00,,---,0.00,0.00,VWS V14.01,2013-04-11 06:03:00,
2013-04-11 02:33:00,73.9,71.1,29.97,ESE,119,2.0,12.0,91,0.00,,---,0.00,0.00,VWS V14.01,2013-04-11 06:33:00,
2013-04-11 03:04:00,73.7,70.9,29.96,ESE,116,2.0,10.0,91,0.00,,---,0.00,0.00,VWS V14.01,2013-04-11 07:04:00,
2013-04-11 03:33:00,73.4,70.6,29.95,SE,131,5.0,10.0,91,0.00,,---,0.00,0.00,VWS V14.01,2013-04-11 07:33:00,
2013-04-11 04:03:00,73.4,70.6,29.95,ESE,113,2.0,10.0,91,0.00,,---,0.00,0.00,VWS V14.01,2013-04-11 08:03:00,
2013-04-11 04:33:00,73.4,70.6,29.95,ESE,114,5.0,10.0,91,0.00,,---,0.00,0.00,VWS V14.01,2013-04-11 08:33:00,
2013-04-11 05:03:00,73.3,70.5,29.95,ESE,115,1.0,11.0,91,0.00,,---,0.00,0.00,VWS V14.01,2013-04-11 09:03:00,
2013-04-11 05:33:00,73.3,70.5,29.95,SE,127,5.0,12.0,91,0.00,,---,0.00,0.00,VWS V14.01,2013-04-11 09:33:00,
2013-04-11 06:03:00,73.2,70.7,29.95,ESE,111,2.0,11.0,92,0.00,,---,0.00,0.00,VWS V14.01,2013-04-11 10:03:00,
2013-04-11 06:33:00,73.3,70.5,29.96,SE,126,4.0,9.0,91,0.00,,---,0.00,0.00,VWS V14.01,2013-04-11 10:33:00,
2013-04-11 07:33:00,73.6,70.5,29.98,ESE,117,4.0,12.0,90,0.00,,---,0.00,25.00,VWS V14.01,2013-04-11 11:33:00,
2013-04-11 08:03:00,74.6,70.8,29.98,East,90,3.0,12.0,88,0.00,,---,0.00,62.00,VWS V14.01,2013-04-11 12:03:00,
2013-04-11 08:33:00,75.8,71.3,29.99,SE,131,1.0,12.0,86,0.00,,---,0.00,243.00,VWS V14.01,2013-04-11 12:33:00,
2013-04-11 09:03:00,77.5,71.6,29.99,ENE,78,8.0,17.0,82,0.00,,---,0.00,353.00,VWS V14.01,2013-04-11 13:03:00,
2013-04-11 09:33:00,78.4,71.3,29.99,SE,140,5.0,19.0,79,0.00,,---,0.00,499.00,VWS V14.01,2013-04-11 13:33:00,
2013-04-11 10:03:00,80.1,72.2,30.00,ESE,111,15.0,22.0,77,0.00,,---,0.00,582.00,VWS V14.01,2013-04-11 14:03:00,
2013-04-11 10:33:00,81.9,72.4,30.00,South,190,2.0,16.0,73,0.00,,---,0.00,795.00,VWS V14.01,2013-04-11 14:33:00,
2013-04-11 11:03:00,80.9,72.2,30.00,ESE,108,7.0,21.0,75,0.00,,---,0.00,909.00,VWS V14.01,2013-04-11 15:03:00,
2013-04-11 11:33:00,82.2,72.3,30.00,SE,137,9.0,22.0,72,0.00,,---,0.00,988.00,VWS V14.01,2013-04-11 15:33:00,
2013-04-11 12:03:00,82.5,73.0,30.00,ESE,113,7.0,19.0,73,0.00,,---,0.00,991.00,VWS V14.01,2013-04-11 16:03:00,
2013-04-11 12:33:00,82.2,73.1,29.99,ESE,111,5.0,21.0,74,0.00,,---,0.00,1009.00,VWS V14.01,2013-04-11 16:33:00,
2013-04-11 13:03:00,82.7,72.8,29.98,ESE,105,19.0,21.0,72,0.00,,---,0.00,984.00,VWS V14.01,2013-04-11 17:03:00,
2013-04-11 13:33:00,82.1,72.6,29.96,ESE,123,14.0,22.0,73,0.00,,---,0.00,325.00,VWS V14.01,2013-04-11 17:33:00,
2013-04-11 14:03:00,82.5,72.6,29.95,ESE,104,7.0,23.0,72,0.00,,---,0.00,923.00,VWS V14.01,2013-04-11 18:03:00,
2013-04-11 14:33:00,82.8,72.4,29.94,East,97,8.0,22.0,71,0.00,,---,0.00,867.00,VWS V14.01,2013-04-11 18:33:00,
2013-04-11 15:03:00,83.0,72.6,29.93,East,88,12.0,24.0,71,0.00,,---,0.00,823.00,VWS V14.01,2013-04-11 19:03:00,
2013-04-11 15:33:00,82.3,73.2,29.92,SE,129,7.0,21.0,74,0.00,,---,0.00,759.00,VWS V14.01,2013-04-11 19:33:00,
2013-04-11 16:03:00,82.6,72.7,29.91,East,100,10.0,19.0,72,0.00,,---,0.00,367.00,VWS V14.01,2013-04-11 20:03:00,
2013-04-11 16:33:00,82.0,73.3,29.89,East,82,10.0,21.0,75,0.00,,---,0.00,601.00,VWS V14.01,2013-04-11 20:33:00,
2013-04-11 17:03:00,81.5,72.4,29.89,SE,129,13.0,19.0,74,0.00,,---,0.00,517.00,VWS V14.01,2013-04-11 21:03:00,
2013-04-11 17:33:00,81.0,72.3,29.88,SE,126,6.0,18.0,75,0.00,,---,0.00,418.00,VWS V14.01,2013-04-11 21:33:00,
2013-04-11 18:03:00,80.0,71.8,29.86,ESE,111,19.0,19.0,76,0.00,,---,0.00,292.00,VWS V14.01,2013-04-11 22:03:00,
2013-04-11 18:33:00,78.4,71.7,29.87,SE,127,6.0,21.0,80,0.00,,---,0.00,163.00,VWS V14.01,2013-04-11 22:33:00,
2013-04-11 19:03:00,77.0,71.4,29.87,SE,134,5.0,18.0,83,0.00,,---,0.00,30.00,VWS V14.01,2013-04-11 23:03:00,
2013-04-11 19:33:00,76.8,71.6,29.87,SE,126,9.0,18.0,84,0.00,,---,0.00,25.00,VWS V14.01,2013-04-11 23:33:00,
2013-04-11 20:03:00,76.4,71.6,29.87,SE,144,11.0,19.0,85,0.00,,---,0.00,0.00,VWS V14.01,2013-04-12 00:03:00,
2013-04-11 20:33:00,76.1,71.6,29.88,ESE,123,5.0,18.0,86,0.00,,---,0.00,0.00,VWS V14.01,2013-04-12 00:33:00,
2013-04-11 21:03:00,76.1,71.9,29.88,SE,129,7.0,12.0,87,0.00,,---,0.00,0.00,VWS V14.01,2013-04-12 01:03:00,
2013-04-11 21:33:00,76.1,72.3,29.88,SE,139,4.0,15.0,88,0.00,,---,0.00,0.00,VWS V14.01,2013-04-12 01:33:00,
2013-04-11 22:03:00,76.1,72.3,29.88,SE,127,3.0,13.0,88,0.00,,---,0.00,0.00,VWS V14.01,2013-04-12 02:03:00,
2013-04-11 22:33:00,76.1,72.3,29.87,ESE,102,11.0,13.0,88,0.00,,---,0.00,0.00,VWS V14.01,2013-04-12 02:33:00,
2013-04-11 23:03:00,76.1,72.6,29.86,ESE,113,6.0,14.0,89,0.00,,---,0.00,0.00,VWS V14.01,2013-04-12 03:03:00,
2013-04-11 23:33:00,76.0,72.5,29.87,SE,124,7.0,18.0,89,0.00,,---,0.00,0.00,VWS V14.01,2013-04-12 03:33:00,